sensor_id;sensor_type;location;lat;lon;timestamp;P1;durP1;ratioP1;P2;durP2;ratioP2
42018;SDS011;27703;51.980;5.848;2022-10-16T00:01:40;3.80;;;0.77;;
42018;SDS011;27703;51.980;5.848;2022-10-16T00:04:06;3.20;;;0.60;;
42018;SDS011;27703;51.980;5.848;2022-10-16T00:06:31;3.65;;;0.90;;
42018;SDS011;27703;51.980;5.848;2022-10-16T00:08:59;3.50;;;0.82;;
42018;SDS011;27703;51.980;5.848;2022-10-16T00:11:26;3.97;;;1.00;;
42018;SDS011;27703;51.980;5.848;2022-10-16T00:13:57;2.60;;;0.80;;
42018;SDS011;27703;51.980;5.848;2022-10-16T00:16:24;2.22;;;0.60;;
42018;SDS011;27703;51.980;5.848;2022-10-16T00:18:50;3.88;;;0.88;;
42018;SDS011;27703;51.980;5.848;2022-10-16T00:21:18;3.38;;;0.80;;
42018;SDS011;27703;51.980;5.848;2022-10-16T00:23:46;5.32;;;0.85;;
42018;SDS011;27703;51.980;5.848;2022-10-16T00:26:15;2.22;;;0.80;;
42018;SDS011;27703;51.980;5.848;2022-10-16T00:28:42;4.50;;;0.75;;
42018;SDS011;27703;51.980;5.848;2022-10-16T00:31:10;4.20;;;0.60;;
42018;SDS011;27703;51.980;5.848;2022-10-16T00:33:37;2.65;;;0.63;;
42018;SDS011;27703;51.980;5.848;2022-10-16T00:36:05;2.90;;;1.08;;
42018;SDS011;27703;51.980;5.848;2022-10-16T00:38:31;5.07;;;0.95;;
42018;SDS011;27703;51.980;5.848;2022-10-16T00:40:57;8.55;;;0.55;;
42018;SDS011;27703;51.980;5.848;2022-10-16T00:46:10;2.75;;;0.60;;
42018;SDS011;27703;51.980;5.848;2022-10-16T00:48:45;1.80;;;0.50;;
42018;SDS011;27703;51.980;5.848;2022-10-16T00:51:20;3.78;;;0.68;;
42018;SDS011;27703;51.980;5.848;2022-10-16T00:53:49;1.40;;;0.50;;
42018;SDS011;27703;51.980;5.848;2022-10-16T00:56:15;3.08;;;0.60;;
42018;SDS011;27703;51.980;5.848;2022-10-16T00:58:41;2.95;;;0.80;;
42018;SDS011;27703;51.980;5.848;2022-10-16T01:01:07;3.67;;;0.90;;
42018;SDS011;27703;51.980;5.848;2022-10-16T01:03:33;3.33;;;0.77;;
42018;SDS011;27703;51.980;5.848;2022-10-16T01:08:38;1.70;;;0.70;;
42018;SDS011;27703;51.980;5.848;2022-10-16T01:11:27;1.90;;;0.60;;
42018;SDS011;27703;51.980;5.848;2022-10-16T01:14:47;4.85;;;0.60;;
42018;SDS011;27703;51.980;5.848;2022-10-16T01:17:04;4.70;;;0.68;;
42018;SDS011;27703;51.980;5.848;2022-10-16T01:22:37;5.32;;;0.70;;
42018;SDS011;27703;51.980;5.848;2022-10-16T01:28:18;1.70;;;0.70;;
42018;SDS011;27703;51.980;5.848;2022-10-16T01:30:46;3.05;;;0.60;;
42018;SDS011;27703;51.980;5.848;2022-10-16T01:33:23;2.83;;;0.80;;
42018;SDS011;27703;51.980;5.848;2022-10-16T01:35:54;1.70;;;0.80;;
42018;SDS011;27703;51.980;5.848;2022-10-16T01:38:34;2.55;;;1.00;;
42018;SDS011;27703;51.980;5.848;2022-10-16T01:41:05;1.80;;;0.70;;
42018;SDS011;27703;51.980;5.848;2022-10-16T01:44:06;2.53;;;0.80;;
42018;SDS011;27703;51.980;5.848;2022-10-16T01:46:37;5.80;;;0.63;;
42018;SDS011;27703;51.980;5.848;2022-10-16T01:49:04;2.90;;;0.60;;
42018;SDS011;27703;51.980;5.848;2022-10-16T01:51:32;1.95;;;0.70;;
42018;SDS011;27703;51.980;5.848;2022-10-16T01:54:00;1.70;;;0.75;;
42018;SDS011;27703;51.980;5.848;2022-10-16T01:56:27;2.40;;;0.85;;
42018;SDS011;27703;51.980;5.848;2022-10-16T01:58:55;2.33;;;0.80;;
42018;SDS011;27703;51.980;5.848;2022-10-16T02:01:29;2.03;;;0.60;;
42018;SDS011;27703;51.980;5.848;2022-10-16T02:03:59;2.70;;;0.90;;
42018;SDS011;27703;51.980;5.848;2022-10-16T02:06:29;4.00;;;1.23;;
42018;SDS011;27703;51.980;5.848;2022-10-16T02:08:55;2.45;;;0.63;;
42018;SDS011;27703;51.980;5.848;2022-10-16T02:11:20;4.03;;;0.65;;
42018;SDS011;27703;51.980;5.848;2022-10-16T02:13:47;1.40;;;0.50;;
42018;SDS011;27703;51.980;5.848;2022-10-16T02:16:16;1.40;;;0.80;;
42018;SDS011;27703;51.980;5.848;2022-10-16T02:18:42;3.50;;;0.50;;
42018;SDS011;27703;51.980;5.848;2022-10-16T02:21:12;2.05;;;0.50;;
42018;SDS011;27703;51.980;5.848;2022-10-16T02:23:51;2.13;;;0.50;;
42018;SDS011;27703;51.980;5.848;2022-10-16T02:26:36;1.08;;;0.50;;
42018;SDS011;27703;51.980;5.848;2022-10-16T02:29:15;1.20;;;0.60;;
42018;SDS011;27703;51.980;5.848;2022-10-16T02:31:46;1.52;;;0.70;;
42018;SDS011;27703;51.980;5.848;2022-10-16T02:34:16;0.98;;;0.70;;
42018;SDS011;27703;51.980;5.848;2022-10-16T02:36:43;3.83;;;0.52;;
42018;SDS011;27703;51.980;5.848;2022-10-16T02:39:10;6.40;;;0.60;;
42018;SDS011;27703;51.980;5.848;2022-10-16T02:41:36;3.22;;;0.63;;
42018;SDS011;27703;51.980;5.848;2022-10-16T02:44:02;2.60;;;0.60;;
42018;SDS011;27703;51.980;5.848;2022-10-16T02:46:28;2.25;;;0.57;;
42018;SDS011;27703;51.980;5.848;2022-10-16T02:48:53;2.00;;;0.60;;
42018;SDS011;27703;51.980;5.848;2022-10-16T02:51:19;4.20;;;0.50;;
42018;SDS011;27703;51.980;5.848;2022-10-16T02:53:44;2.08;;;0.55;;
42018;SDS011;27703;51.980;5.848;2022-10-16T02:56:10;3.22;;;0.45;;
42018;SDS011;27703;51.980;5.848;2022-10-16T02:58:35;3.28;;;0.63;;
42018;SDS011;27703;51.980;5.848;2022-10-16T03:01:01;2.33;;;0.70;;
42018;SDS011;27703;51.980;5.848;2022-10-16T03:03:26;2.85;;;0.65;;
42018;SDS011;27703;51.980;5.848;2022-10-16T03:05:52;4.20;;;0.85;;
42018;SDS011;27703;51.980;5.848;2022-10-16T03:08:18;1.38;;;0.60;;
42018;SDS011;27703;51.980;5.848;2022-10-16T03:10:48;1.67;;;0.60;;
42018;SDS011;27703;51.980;5.848;2022-10-16T03:13:14;1.58;;;0.50;;
42018;SDS011;27703;51.980;5.848;2022-10-16T03:15:40;1.50;;;0.52;;
42018;SDS011;27703;51.980;5.848;2022-10-16T03:18:05;2.33;;;0.50;;
42018;SDS011;27703;51.980;5.848;2022-10-16T03:20:31;1.00;;;0.50;;
42018;SDS011;27703;51.980;5.848;2022-10-16T03:22:56;1.17;;;0.57;;
42018;SDS011;27703;51.980;5.848;2022-10-16T03:25:22;1.48;;;0.50;;
42018;SDS011;27703;51.980;5.848;2022-10-16T03:27:47;1.30;;;0.70;;
42018;SDS011;27703;51.980;5.848;2022-10-16T03:30:13;1.13;;;0.45;;
42018;SDS011;27703;51.980;5.848;2022-10-16T03:32:38;1.13;;;0.40;;
42018;SDS011;27703;51.980;5.848;2022-10-16T03:35:04;0.93;;;0.40;;
42018;SDS011;27703;51.980;5.848;2022-10-16T03:37:30;1.02;;;0.50;;
42018;SDS011;27703;51.980;5.848;2022-10-16T03:39:55;1.20;;;0.30;;
42018;SDS011;27703;51.980;5.848;2022-10-16T03:42:21;0.98;;;0.40;;
42018;SDS011;27703;51.980;5.848;2022-10-16T03:44:46;1.25;;;0.40;;
42018;SDS011;27703;51.980;5.848;2022-10-16T03:47:12;1.15;;;0.40;;
42018;SDS011;27703;51.980;5.848;2022-10-16T03:49:37;0.77;;;0.30;;
42018;SDS011;27703;51.980;5.848;2022-10-16T03:52:03;0.90;;;0.40;;
42018;SDS011;27703;51.980;5.848;2022-10-16T03:54:28;1.58;;;0.30;;
42018;SDS011;27703;51.980;5.848;2022-10-16T03:56:54;3.80;;;0.50;;
42018;SDS011;27703;51.980;5.848;2022-10-16T03:59:19;0.90;;;0.40;;
42018;SDS011;27703;51.980;5.848;2022-10-16T04:01:45;1.45;;;0.40;;
42018;SDS011;27703;51.980;5.848;2022-10-16T04:04:10;0.95;;;0.30;;
42018;SDS011;27703;51.980;5.848;2022-10-16T04:06:36;1.05;;;0.30;;
42018;SDS011;27703;51.980;5.848;2022-10-16T04:09:02;1.40;;;0.50;;
42018;SDS011;27703;51.980;5.848;2022-10-16T04:11:27;2.33;;;0.57;;
42018;SDS011;27703;51.980;5.848;2022-10-16T04:13:53;2.53;;;0.57;;
42018;SDS011;27703;51.980;5.848;2022-10-16T04:16:19;1.02;;;0.47;;
42018;SDS011;27703;51.980;5.848;2022-10-16T04:18:45;2.15;;;0.95;;
42018;SDS011;27703;51.980;5.848;2022-10-16T04:21:10;2.47;;;1.05;;
42018;SDS011;27703;51.980;5.848;2022-10-16T04:23:36;2.25;;;1.13;;
42018;SDS011;27703;51.980;5.848;2022-10-16T04:26:01;1.60;;;0.80;;
42018;SDS011;27703;51.980;5.848;2022-10-16T04:28:27;3.28;;;0.50;;
42018;SDS011;27703;51.980;5.848;2022-10-16T04:30:53;1.50;;;0.70;;
42018;SDS011;27703;51.980;5.848;2022-10-16T04:33:18;2.17;;;0.50;;
42018;SDS011;27703;51.980;5.848;2022-10-16T04:35:44;3.15;;;0.50;;
42018;SDS011;27703;51.980;5.848;2022-10-16T04:38:09;3.05;;;0.50;;
42018;SDS011;27703;51.980;5.848;2022-10-16T04:40:35;2.05;;;0.40;;
42018;SDS011;27703;51.980;5.848;2022-10-16T04:43:02;2.10;;;0.60;;
42018;SDS011;27703;51.980;5.848;2022-10-16T04:45:28;2.60;;;0.80;;
42018;SDS011;27703;51.980;5.848;2022-10-16T04:47:56;1.10;;;0.50;;
42018;SDS011;27703;51.980;5.848;2022-10-16T04:50:23;0.98;;;0.50;;
42018;SDS011;27703;51.980;5.848;2022-10-16T04:52:48;3.15;;;0.40;;
42018;SDS011;27703;51.980;5.848;2022-10-16T04:55:14;1.75;;;0.40;;
42018;SDS011;27703;51.980;5.848;2022-10-16T04:57:40;1.50;;;0.43;;
42018;SDS011;27703;51.980;5.848;2022-10-16T05:00:05;1.40;;;0.52;;
42018;SDS011;27703;51.980;5.848;2022-10-16T05:02:32;1.02;;;0.40;;
42018;SDS011;27703;51.980;5.848;2022-10-16T05:04:58;1.30;;;0.40;;
42018;SDS011;27703;51.980;5.848;2022-10-16T05:07:23;1.73;;;0.30;;
42018;SDS011;27703;51.980;5.848;2022-10-16T05:09:49;1.27;;;0.50;;
42018;SDS011;27703;51.980;5.848;2022-10-16T05:12:14;0.80;;;0.40;;
42018;SDS011;27703;51.980;5.848;2022-10-16T05:14:40;1.77;;;0.50;;
42018;SDS011;27703;51.980;5.848;2022-10-16T05:17:05;1.02;;;0.35;;
42018;SDS011;27703;51.980;5.848;2022-10-16T05:19:31;0.93;;;0.32;;
42018;SDS011;27703;51.980;5.848;2022-10-16T05:21:57;1.27;;;0.30;;
42018;SDS011;27703;51.980;5.848;2022-10-16T05:24:22;1.00;;;0.38;;
42018;SDS011;27703;51.980;5.848;2022-10-16T05:26:48;2.58;;;0.50;;
42018;SDS011;27703;51.980;5.848;2022-10-16T05:29:15;4.32;;;0.30;;
42018;SDS011;27703;51.980;5.848;2022-10-16T05:31:40;1.65;;;0.38;;
42018;SDS011;27703;51.980;5.848;2022-10-16T05:34:06;0.75;;;0.20;;
42018;SDS011;27703;51.980;5.848;2022-10-16T05:36:31;1.90;;;0.40;;
42018;SDS011;27703;51.980;5.848;2022-10-16T05:38:57;4.55;;;0.40;;
42018;SDS011;27703;51.980;5.848;2022-10-16T05:41:22;0.93;;;0.30;;
42018;SDS011;27703;51.980;5.848;2022-10-16T05:43:50;1.85;;;0.50;;
42018;SDS011;27703;51.980;5.848;2022-10-16T05:46:16;1.90;;;0.40;;
42018;SDS011;27703;51.980;5.848;2022-10-16T05:48:42;1.00;;;0.40;;
42018;SDS011;27703;51.980;5.848;2022-10-16T05:51:09;1.40;;;0.50;;
42018;SDS011;27703;51.980;5.848;2022-10-16T05:53:36;1.05;;;0.30;;
42018;SDS011;27703;51.980;5.848;2022-10-16T05:56:03;2.97;;;0.30;;
42018;SDS011;27703;51.980;5.848;2022-10-16T05:58:34;1.00;;;0.40;;
42018;SDS011;27703;51.980;5.848;2022-10-16T06:01:02;0.82;;;0.40;;
42018;SDS011;27703;51.980;5.848;2022-10-16T06:03:29;1.15;;;0.30;;
42018;SDS011;27703;51.980;5.848;2022-10-16T06:05:55;1.00;;;0.40;;
42018;SDS011;27703;51.980;5.848;2022-10-16T06:08:21;0.80;;;0.30;;
42018;SDS011;27703;51.980;5.848;2022-10-16T06:10:47;1.23;;;0.40;;
42018;SDS011;27703;51.980;5.848;2022-10-16T06:13:14;1.95;;;0.40;;
42018;SDS011;27703;51.980;5.848;2022-10-16T06:15:41;1.48;;;0.50;;
42018;SDS011;27703;51.980;5.848;2022-10-16T06:18:08;3.28;;;0.60;;
42018;SDS011;27703;51.980;5.848;2022-10-16T06:20:34;0.88;;;0.40;;
42018;SDS011;27703;51.980;5.848;2022-10-16T06:23:00;0.90;;;0.40;;
42018;SDS011;27703;51.980;5.848;2022-10-16T06:25:26;1.00;;;0.40;;
42018;SDS011;27703;51.980;5.848;2022-10-16T06:27:51;5.22;;;0.50;;
42018;SDS011;27703;51.980;5.848;2022-10-16T06:30:17;1.60;;;0.45;;
42018;SDS011;27703;51.980;5.848;2022-10-16T06:32:42;1.83;;;0.40;;
42018;SDS011;27703;51.980;5.848;2022-10-16T06:35:08;2.55;;;0.50;;
42018;SDS011;27703;51.980;5.848;2022-10-16T06:37:33;3.17;;;0.50;;
42018;SDS011;27703;51.980;5.848;2022-10-16T06:39:59;2.33;;;0.60;;
42018;SDS011;27703;51.980;5.848;2022-10-16T06:42:25;2.70;;;0.60;;
42018;SDS011;27703;51.980;5.848;2022-10-16T06:44:51;2.53;;;0.60;;
42018;SDS011;27703;51.980;5.848;2022-10-16T06:47:16;3.30;;;0.63;;
42018;SDS011;27703;51.980;5.848;2022-10-16T06:49:42;2.90;;;0.65;;
42018;SDS011;27703;51.980;5.848;2022-10-16T06:52:08;1.27;;;0.40;;
42018;SDS011;27703;51.980;5.848;2022-10-16T06:54:33;6.65;;;0.93;;
42018;SDS011;27703;51.980;5.848;2022-10-16T06:56:59;1.67;;;0.70;;
42018;SDS011;27703;51.980;5.848;2022-10-16T06:59:26;1.58;;;0.70;;
42018;SDS011;27703;51.980;5.848;2022-10-16T07:01:51;1.75;;;0.50;;
42018;SDS011;27703;51.980;5.848;2022-10-16T07:04:16;0.98;;;0.50;;
42018;SDS011;27703;51.980;5.848;2022-10-16T07:06:42;1.33;;;0.50;;
42018;SDS011;27703;51.980;5.848;2022-10-16T07:09:09;1.73;;;0.50;;
42018;SDS011;27703;51.980;5.848;2022-10-16T07:11:36;1.77;;;0.45;;
42018;SDS011;27703;51.980;5.848;2022-10-16T07:14:02;3.45;;;0.70;;
42018;SDS011;27703;51.980;5.848;2022-10-16T07:16:29;2.97;;;0.70;;
42018;SDS011;27703;51.980;5.848;2022-10-16T07:19:00;4.07;;;0.70;;
42018;SDS011;27703;51.980;5.848;2022-10-16T07:21:30;3.03;;;0.60;;
42018;SDS011;27703;51.980;5.848;2022-10-16T07:24:00;3.20;;;0.70;;
42018;SDS011;27703;51.980;5.848;2022-10-16T07:26:27;1.75;;;0.77;;
42018;SDS011;27703;51.980;5.848;2022-10-16T07:28:54;2.97;;;0.60;;
42018;SDS011;27703;51.980;5.848;2022-10-16T07:31:21;1.90;;;0.50;;
42018;SDS011;27703;51.980;5.848;2022-10-16T07:33:47;1.35;;;0.50;;
42018;SDS011;27703;51.980;5.848;2022-10-16T07:36:14;2.92;;;0.80;;
42018;SDS011;27703;51.980;5.848;2022-10-16T07:38:40;1.55;;;0.70;;
42018;SDS011;27703;51.980;5.848;2022-10-16T07:41:08;1.83;;;0.70;;
42018;SDS011;27703;51.980;5.848;2022-10-16T07:43:36;3.00;;;0.68;;
42018;SDS011;27703;51.980;5.848;2022-10-16T07:46:02;3.72;;;0.63;;
42018;SDS011;27703;51.980;5.848;2022-10-16T07:48:29;1.60;;;0.73;;
42018;SDS011;27703;51.980;5.848;2022-10-16T07:50:56;5.93;;;0.80;;
42018;SDS011;27703;51.980;5.848;2022-10-16T07:53:27;5.05;;;0.73;;
42018;SDS011;27703;51.980;5.848;2022-10-16T07:56:00;1.90;;;0.60;;
42018;SDS011;27703;51.980;5.848;2022-10-16T07:58:27;3.30;;;0.60;;
42018;SDS011;27703;51.980;5.848;2022-10-16T08:00:53;2.75;;;1.15;;
42018;SDS011;27703;51.980;5.848;2022-10-16T08:03:18;6.97;;;1.00;;
42018;SDS011;27703;51.980;5.848;2022-10-16T08:05:44;1.52;;;0.55;;
42018;SDS011;27703;51.980;5.848;2022-10-16T08:08:13;5.00;;;0.93;;
42018;SDS011;27703;51.980;5.848;2022-10-16T08:10:39;2.97;;;0.77;;
42018;SDS011;27703;51.980;5.848;2022-10-16T08:13:05;5.68;;;0.65;;
42018;SDS011;27703;51.980;5.848;2022-10-16T08:15:31;10.85;;;0.95;;
42018;SDS011;27703;51.980;5.848;2022-10-16T08:17:57;4.75;;;0.90;;
42018;SDS011;27703;51.980;5.848;2022-10-16T08:22:54;1.73;;;0.70;;
42018;SDS011;27703;51.980;5.848;2022-10-16T08:25:20;7.63;;;0.80;;
42018;SDS011;27703;51.980;5.848;2022-10-16T08:27:47;4.85;;;0.68;;
42018;SDS011;27703;51.980;5.848;2022-10-16T08:30:12;6.63;;;0.65;;
42018;SDS011;27703;51.980;5.848;2022-10-16T08:32:39;2.33;;;0.60;;
42018;SDS011;27703;51.980;5.848;2022-10-16T08:35:06;3.53;;;0.50;;
42018;SDS011;27703;51.980;5.848;2022-10-16T08:37:32;4.40;;;0.80;;
42018;SDS011;27703;51.980;5.848;2022-10-16T08:39:58;3.47;;;0.73;;
42018;SDS011;27703;51.980;5.848;2022-10-16T08:47:59;3.65;;;0.75;;
42018;SDS011;27703;51.980;5.848;2022-10-16T08:50:44;3.25;;;0.80;;
42018;SDS011;27703;51.980;5.848;2022-10-16T08:53:14;6.00;;;2.05;;
42018;SDS011;27703;51.980;5.848;2022-10-16T09:00:40;1.75;;;0.50;;
42018;SDS011;27703;51.980;5.848;2022-10-16T09:05:52;4.93;;;0.85;;
42018;SDS011;27703;51.980;5.848;2022-10-16T09:08:28;4.95;;;0.75;;
42018;SDS011;27703;51.980;5.848;2022-10-16T09:11:18;4.63;;;0.50;;
42018;SDS011;27703;51.980;5.848;2022-10-16T09:16:22;6.55;;;0.55;;
42018;SDS011;27703;51.980;5.848;2022-10-16T09:21:41;2.45;;;0.45;;
42018;SDS011;27703;51.980;5.848;2022-10-16T09:24:13;4.72;;;0.63;;
42018;SDS011;27703;51.980;5.848;2022-10-16T09:26:41;3.75;;;0.45;;
42018;SDS011;27703;51.980;5.848;2022-10-16T09:29:08;2.00;;;0.40;;
42018;SDS011;27703;51.980;5.848;2022-10-16T09:31:38;6.10;;;1.60;;
42018;SDS011;27703;51.980;5.848;2022-10-16T09:34:04;5.18;;;0.55;;
42018;SDS011;27703;51.980;5.848;2022-10-16T09:36:35;6.68;;;0.68;;
42018;SDS011;27703;51.980;5.848;2022-10-16T09:39:07;3.72;;;0.50;;
42018;SDS011;27703;51.980;5.848;2022-10-16T09:41:35;4.47;;;0.50;;
42018;SDS011;27703;51.980;5.848;2022-10-16T09:44:03;6.47;;;0.60;;
42018;SDS011;27703;51.980;5.848;2022-10-16T09:46:39;5.68;;;0.40;;
42018;SDS011;27703;51.980;5.848;2022-10-16T09:49:16;3.30;;;0.60;;
42018;SDS011;27703;51.980;5.848;2022-10-16T09:51:45;4.35;;;0.60;;
42018;SDS011;27703;51.980;5.848;2022-10-16T09:54:14;3.30;;;0.40;;
42018;SDS011;27703;51.980;5.848;2022-10-16T09:56:44;8.60;;;0.75;;
42018;SDS011;27703;51.980;5.848;2022-10-16T09:59:21;3.47;;;0.50;;
42018;SDS011;27703;51.980;5.848;2022-10-16T10:01:53;3.08;;;0.40;;
42018;SDS011;27703;51.980;5.848;2022-10-16T10:04:20;10.93;;;0.73;;
42018;SDS011;27703;51.980;5.848;2022-10-16T10:06:48;4.28;;;0.60;;
42018;SDS011;27703;51.980;5.848;2022-10-16T10:12:01;4.97;;;0.88;;
42018;SDS011;27703;51.980;5.848;2022-10-16T10:14:30;6.18;;;0.75;;
42018;SDS011;27703;51.980;5.848;2022-10-16T10:19:40;4.63;;;0.63;;
42018;SDS011;27703;51.980;5.848;2022-10-16T10:22:16;8.85;;;1.30;;
42018;SDS011;27703;51.980;5.848;2022-10-16T10:24:46;6.78;;;0.73;;
42018;SDS011;27703;51.980;5.848;2022-10-16T10:27:28;10.32;;;0.70;;
42018;SDS011;27703;51.980;5.848;2022-10-16T10:30:06;8.85;;;0.80;;
42018;SDS011;27703;51.980;5.848;2022-10-16T10:32:46;5.72;;;0.50;;
42018;SDS011;27703;51.980;5.848;2022-10-16T10:35:44;9.43;;;0.50;;
42018;SDS011;27703;51.980;5.848;2022-10-16T10:40:54;8.45;;;0.50;;
42018;SDS011;27703;51.980;5.848;2022-10-16T10:45:59;5.35;;;0.40;;
42018;SDS011;27703;51.980;5.848;2022-10-16T10:48:46;7.65;;;0.50;;
42018;SDS011;27703;51.980;5.848;2022-10-16T10:54:15;3.88;;;0.30;;
42018;SDS011;27703;51.980;5.848;2022-10-16T10:56:51;5.53;;;0.43;;
42018;SDS011;27703;51.980;5.848;2022-10-16T10:59:32;8.38;;;0.47;;
42018;SDS011;27703;51.980;5.848;2022-10-16T11:02:25;12.65;;;0.60;;
42018;SDS011;27703;51.980;5.848;2022-10-16T11:07:54;7.65;;;1.00;;
42018;SDS011;27703;51.980;5.848;2022-10-16T11:10:38;8.85;;;0.50;;
42018;SDS011;27703;51.980;5.848;2022-10-16T11:15:56;7.07;;;0.50;;
42018;SDS011;27703;51.980;5.848;2022-10-16T11:18:49;4.32;;;0.50;;
42018;SDS011;27703;51.980;5.848;2022-10-16T11:21:21;4.07;;;0.60;;
42018;SDS011;27703;51.980;5.848;2022-10-16T11:23:51;6.88;;;0.38;;
42018;SDS011;27703;51.980;5.848;2022-10-16T11:26:31;5.53;;;0.60;;
42018;SDS011;27703;51.980;5.848;2022-10-16T11:29:00;8.52;;;0.43;;
42018;SDS011;27703;51.980;5.848;2022-10-16T11:31:36;5.10;;;0.40;;
42018;SDS011;27703;51.980;5.848;2022-10-16T11:36:51;6.30;;;0.40;;
42018;SDS011;27703;51.980;5.848;2022-10-16T11:39:34;5.55;;;0.57;;
42018;SDS011;27703;51.980;5.848;2022-10-16T11:42:09;7.97;;;0.98;;
42018;SDS011;27703;51.980;5.848;2022-10-16T11:44:57;10.80;;;0.40;;
42018;SDS011;27703;51.980;5.848;2022-10-16T11:50:38;10.75;;;0.52;;
42018;SDS011;27703;51.980;5.848;2022-10-16T11:53:11;10.23;;;0.50;;
42018;SDS011;27703;51.980;5.848;2022-10-16T11:55:43;4.82;;;0.30;;
42018;SDS011;27703;51.980;5.848;2022-10-16T11:58:29;6.13;;;0.65;;
42018;SDS011;27703;51.980;5.848;2022-10-16T12:03:35;10.77;;;1.00;;
42018;SDS011;27703;51.980;5.848;2022-10-16T12:06:14;11.95;;;0.60;;
42018;SDS011;27703;51.980;5.848;2022-10-16T12:08:48;5.70;;;0.40;;
42018;SDS011;27703;51.980;5.848;2022-10-16T12:11:23;7.43;;;0.50;;
42018;SDS011;27703;51.980;5.848;2022-10-16T12:16:37;2.88;;;0.30;;
42018;SDS011;27703;51.980;5.848;2022-10-16T12:19:16;3.28;;;0.30;;
42018;SDS011;27703;51.980;5.848;2022-10-16T12:21:43;7.35;;;0.30;;
42018;SDS011;27703;51.980;5.848;2022-10-16T12:26:57;3.70;;;0.32;;
42018;SDS011;27703;51.980;5.848;2022-10-16T12:29:28;5.00;;;0.30;;
42018;SDS011;27703;51.980;5.848;2022-10-16T12:32:06;3.53;;;0.30;;
42018;SDS011;27703;51.980;5.848;2022-10-16T12:34:52;5.95;;;0.30;;
42018;SDS011;27703;51.980;5.848;2022-10-16T12:37:22;6.10;;;0.40;;
42018;SDS011;27703;51.980;5.848;2022-10-16T12:39:50;5.90;;;0.43;;
42018;SDS011;27703;51.980;5.848;2022-10-16T12:42:23;5.03;;;0.50;;
42018;SDS011;27703;51.980;5.848;2022-10-16T12:44:49;6.35;;;0.40;;
42018;SDS011;27703;51.980;5.848;2022-10-16T12:47:19;9.57;;;0.77;;
42018;SDS011;27703;51.980;5.848;2022-10-16T12:49:59;6.47;;;0.30;;
42018;SDS011;27703;51.980;5.848;2022-10-16T12:52:26;4.78;;;0.68;;
42018;SDS011;27703;51.980;5.848;2022-10-16T12:54:55;8.55;;;0.90;;
42018;SDS011;27703;51.980;5.848;2022-10-16T12:57:27;4.50;;;0.35;;
42018;SDS011;27703;51.980;5.848;2022-10-16T13:05:30;5.55;;;0.40;;
42018;SDS011;27703;51.980;5.848;2022-10-16T13:08:10;5.25;;;0.40;;
42018;SDS011;27703;51.980;5.848;2022-10-16T13:13:29;9.00;;;0.70;;
42018;SDS011;27703;51.980;5.848;2022-10-16T13:16:19;3.83;;;0.30;;
42018;SDS011;27703;51.980;5.848;2022-10-16T13:30:02;9.70;;;0.60;;
42018;SDS011;27703;51.980;5.848;2022-10-16T13:32:36;6.60;;;0.40;;
42018;SDS011;27703;51.980;5.848;2022-10-16T13:35:02;6.55;;;0.75;;
42018;SDS011;27703;51.980;5.848;2022-10-16T13:37:29;6.18;;;0.68;;
42018;SDS011;27703;51.980;5.848;2022-10-16T13:40:09;6.25;;;0.32;;
42018;SDS011;27703;51.980;5.848;2022-10-16T13:42:43;7.25;;;0.50;;
42018;SDS011;27703;51.980;5.848;2022-10-16T13:45:23;4.30;;;0.20;;
42018;SDS011;27703;51.980;5.848;2022-10-16T13:48:02;3.83;;;0.30;;
42018;SDS011;27703;51.980;5.848;2022-10-16T13:50:29;4.85;;;0.40;;
42018;SDS011;27703;51.980;5.848;2022-10-16T13:53:05;7.38;;;0.40;;
42018;SDS011;27703;51.980;5.848;2022-10-16T13:55:31;10.02;;;0.43;;
42018;SDS011;27703;51.980;5.848;2022-10-16T13:58:13;10.90;;;0.40;;
42018;SDS011;27703;51.980;5.848;2022-10-16T14:00:39;8.73;;;0.47;;
42018;SDS011;27703;51.980;5.848;2022-10-16T14:03:17;3.70;;;0.30;;
42018;SDS011;27703;51.980;5.848;2022-10-16T14:05:49;9.50;;;0.68;;
42018;SDS011;27703;51.980;5.848;2022-10-16T14:08:16;6.45;;;0.40;;
42018;SDS011;27703;51.980;5.848;2022-10-16T14:10:42;4.70;;;0.60;;
42018;SDS011;27703;51.980;5.848;2022-10-16T14:13:13;7.35;;;0.30;;
42018;SDS011;27703;51.980;5.848;2022-10-16T14:15:45;8.80;;;0.73;;
42018;SDS011;27703;51.980;5.848;2022-10-16T14:18:20;3.33;;;0.30;;
42018;SDS011;27703;51.980;5.848;2022-10-16T14:20:48;3.63;;;0.30;;
42018;SDS011;27703;51.980;5.848;2022-10-16T14:23:22;7.45;;;0.40;;
42018;SDS011;27703;51.980;5.848;2022-10-16T14:25:48;3.78;;;0.20;;
42018;SDS011;27703;51.980;5.848;2022-10-16T14:28:21;6.35;;;0.40;;
42018;SDS011;27703;51.980;5.848;2022-10-16T14:30:49;4.97;;;0.50;;
42018;SDS011;27703;51.980;5.848;2022-10-16T14:35:46;3.65;;;0.25;;
42018;SDS011;27703;51.980;5.848;2022-10-16T14:38:21;16.00;;;0.65;;
42018;SDS011;27703;51.980;5.848;2022-10-16T14:40:47;6.30;;;0.30;;
42018;SDS011;27703;51.980;5.848;2022-10-16T14:43:14;5.93;;;0.50;;
42018;SDS011;27703;51.980;5.848;2022-10-16T14:45:51;5.53;;;0.30;;
42018;SDS011;27703;51.980;5.848;2022-10-16T14:48:19;6.00;;;0.45;;
42018;SDS011;27703;51.980;5.848;2022-10-16T14:50:45;1.70;;;0.20;;
42018;SDS011;27703;51.980;5.848;2022-10-16T14:53:11;3.33;;;0.30;;
42018;SDS011;27703;51.980;5.848;2022-10-16T14:55:38;2.15;;;0.20;;
42018;SDS011;27703;51.980;5.848;2022-10-16T14:58:05;3.97;;;0.20;;
42018;SDS011;27703;51.980;5.848;2022-10-16T15:00:34;3.20;;;0.47;;
42018;SDS011;27703;51.980;5.848;2022-10-16T15:03:00;3.78;;;0.25;;
42018;SDS011;27703;51.980;5.848;2022-10-16T15:05:26;7.32;;;0.40;;
42018;SDS011;27703;51.980;5.848;2022-10-16T15:07:55;3.45;;;0.25;;
42018;SDS011;27703;51.980;5.848;2022-10-16T15:10:21;3.03;;;0.20;;
42018;SDS011;27703;51.980;5.848;2022-10-16T15:12:48;2.72;;;0.20;;
42018;SDS011;27703;51.980;5.848;2022-10-16T15:15:25;3.92;;;0.30;;
42018;SDS011;27703;51.980;5.848;2022-10-16T15:18:01;1.60;;;0.15;;
42018;SDS011;27703;51.980;5.848;2022-10-16T15:20:28;2.40;;;0.10;;
42018;SDS011;27703;51.980;5.848;2022-10-16T15:22:57;8.07;;;0.10;;
42018;SDS011;27703;51.980;5.848;2022-10-16T15:28:06;3.30;;;0.20;;
42018;SDS011;27703;51.980;5.848;2022-10-16T15:30:33;1.85;;;0.20;;
42018;SDS011;27703;51.980;5.848;2022-10-16T15:32:59;2.53;;;0.30;;
42018;SDS011;27703;51.980;5.848;2022-10-16T15:35:25;1.95;;;0.13;;
42018;SDS011;27703;51.980;5.848;2022-10-16T15:37:50;2.25;;;0.38;;
42018;SDS011;27703;51.980;5.848;2022-10-16T15:40:17;4.75;;;0.38;;
42018;SDS011;27703;51.980;5.848;2022-10-16T15:42:44;2.05;;;0.15;;
42018;SDS011;27703;51.980;5.848;2022-10-16T15:45:10;4.80;;;0.30;;
42018;SDS011;27703;51.980;5.848;2022-10-16T15:47:37;2.30;;;0.20;;
42018;SDS011;27703;51.980;5.848;2022-10-16T15:50:02;3.95;;;0.30;;
42018;SDS011;27703;51.980;5.848;2022-10-16T15:52:29;3.17;;;0.30;;
42018;SDS011;27703;51.980;5.848;2022-10-16T15:54:56;3.35;;;0.40;;
42018;SDS011;27703;51.980;5.848;2022-10-16T15:57:22;4.13;;;0.30;;
42018;SDS011;27703;51.980;5.848;2022-10-16T15:59:48;5.60;;;0.40;;
42018;SDS011;27703;51.980;5.848;2022-10-16T16:02:14;3.60;;;0.35;;
42018;SDS011;27703;51.980;5.848;2022-10-16T16:04:40;2.50;;;0.20;;
42018;SDS011;27703;51.980;5.848;2022-10-16T16:07:06;1.85;;;0.20;;
42018;SDS011;27703;51.980;5.848;2022-10-16T16:09:34;4.18;;;0.28;;
42018;SDS011;27703;51.980;5.848;2022-10-16T16:12:00;4.53;;;0.40;;
42018;SDS011;27703;51.980;5.848;2022-10-16T16:14:26;3.08;;;0.50;;
42018;SDS011;27703;51.980;5.848;2022-10-16T16:16:53;6.28;;;0.98;;
42018;SDS011;27703;51.980;5.848;2022-10-16T16:19:22;3.08;;;0.57;;
42018;SDS011;27703;51.980;5.848;2022-10-16T16:21:47;3.72;;;0.73;;
42018;SDS011;27703;51.980;5.848;2022-10-16T16:24:14;2.15;;;0.55;;
42018;SDS011;27703;51.980;5.848;2022-10-16T16:26:39;5.07;;;0.80;;
42018;SDS011;27703;51.980;5.848;2022-10-16T16:29:09;7.75;;;1.83;;
42018;SDS011;27703;51.980;5.848;2022-10-16T16:31:38;6.13;;;4.28;;